createdAt,value
2019-06-20T00:01:05.292Z,6.60
2019-06-20T00:03:38.531Z,4.55
2019-06-20T00:06:11.108Z,6.23
2019-06-20T00:08:44.080Z,5.17
2019-06-20T00:11:17.058Z,6.40
2019-06-20T00:13:49.854Z,5.70
2019-06-20T00:16:23.051Z,5.17
2019-06-20T00:18:55.762Z,6.27
2019-06-20T00:21:28.482Z,6.07
2019-06-20T00:24:02.001Z,5.80
2019-06-20T00:26:34.713Z,4.53
2019-06-20T00:29:07.276Z,5.53
2019-06-20T00:31:40.280Z,5.97
2019-06-20T00:34:12.815Z,6.37
2019-06-20T00:36:45.227Z,6.27
2019-06-20T00:39:17.974Z,6.60
2019-06-20T00:41:50.580Z,6.10
2019-06-20T00:44:23.194Z,7.23
2019-06-20T00:46:56.150Z,4.93
2019-06-20T00:49:28.718Z,7.37
2019-06-20T00:52:01.340Z,4.57
2019-06-20T00:54:34.248Z,5.68
2019-06-20T00:57:06.873Z,4.00
2019-06-20T00:59:39.385Z,4.77
2019-06-20T01:02:13.585Z,4.35
2019-06-20T01:04:46.279Z,5.13
2019-06-20T01:07:18.930Z,6.60
2019-06-20T01:09:52.775Z,5.63
2019-06-20T01:12:25.332Z,4.83
2019-06-20T01:14:57.865Z,5.27
2019-06-20T01:17:31.575Z,4.10
2019-06-20T01:20:04.697Z,4.00
2019-06-20T01:22:37.464Z,5.03
2019-06-20T01:25:10.457Z,5.63
2019-06-20T01:28:02.064Z,5.80
2019-06-20T01:30:34.353Z,6.23
2019-06-20T01:33:06.805Z,3.77
2019-06-20T01:35:40.099Z,4.13
2019-06-20T01:38:12.361Z,5.70
2019-06-20T01:40:44.714Z,4.47
2019-06-20T01:43:16.934Z,7.07
2019-06-20T01:45:49.215Z,4.83
2019-06-20T01:48:20.725Z,4.00
2019-06-20T01:50:53.033Z,4.90
2019-06-20T01:53:25.227Z,5.05
2019-06-20T01:55:57.512Z,5.83
2019-06-20T01:58:29.759Z,5.97
2019-06-20T02:01:02.353Z,6.23
2019-06-20T02:03:39.516Z,7.17
2019-06-20T02:06:16.809Z,7.00
2019-06-20T02:08:54.076Z,7.73
2019-06-20T02:11:31.593Z,7.83
2019-06-20T02:14:08.740Z,7.30
2019-06-20T02:16:46.093Z,8.57
2019-06-20T02:19:18.320Z,8.82
2019-06-20T02:21:50.613Z,10.70
2019-06-20T02:24:23.834Z,8.40
2019-06-20T02:26:56.129Z,9.30
2019-06-20T02:29:28.362Z,8.07
2019-06-20T02:32:01.652Z,9.00
2019-06-20T02:34:33.874Z,9.43
2019-06-20T02:37:06.128Z,8.87
2019-06-20T02:39:38.347Z,9.83
2019-06-20T02:42:10.662Z,8.20
2019-06-20T02:44:42.856Z,11.33
2019-06-20T02:47:15.160Z,7.60
2019-06-20T02:49:47.358Z,10.87
2019-06-20T02:52:19.583Z,6.93
2019-06-20T02:54:59.059Z,7.87
2019-06-20T02:57:35.332Z,11.07
2019-06-20T03:00:07.540Z,11.80
2019-06-20T03:02:39.780Z,9.03
2019-06-20T03:05:12.004Z,8.17
2019-06-20T03:07:45.010Z,10.27
2019-06-20T03:10:17.458Z,9.07
2019-06-20T03:12:49.724Z,9.37
2019-06-20T03:15:21.922Z,9.03
2019-06-20T03:17:54.188Z,7.57
2019-06-20T03:20:26.402Z,9.73
2019-06-20T03:26:19.288Z,8.90
2019-06-20T03:28:51.770Z,8.20
2019-06-20T03:31:25.139Z,12.40
2019-06-20T03:33:58.401Z,14.90
2019-06-20T03:36:31.671Z,8.87
2019-06-20T03:39:06.250Z,12.47
2019-06-20T03:41:39.099Z,15.03
2019-06-20T03:44:11.726Z,14.33
2019-06-20T03:46:44.131Z,12.13
2019-06-20T03:49:17.085Z,12.27
2019-06-20T03:51:51.650Z,15.00
2019-06-20T03:54:24.284Z,13.93
2019-06-20T03:56:57.329Z,10.13
2019-06-20T03:59:29.854Z,15.73
2019-06-20T04:02:02.413Z,16.13
2019-06-20T04:04:35.219Z,11.97
2019-06-20T04:07:07.689Z,13.40
2019-06-20T04:09:40.997Z,18.50
2019-06-20T04:12:13.926Z,14.13
2019-06-20T04:14:48.989Z,19.83
2019-06-20T04:17:21.990Z,18.20
2019-06-20T04:19:54.993Z,19.77
2019-06-20T04:22:27.757Z,19.20
2019-06-20T04:25:01.097Z,23.10
2019-06-20T04:27:33.862Z,18.67
2019-06-20T04:30:08.437Z,22.40
2019-06-20T04:32:40.984Z,22.67
2019-06-20T04:35:13.748Z,21.27
2019-06-20T04:37:46.376Z,20.63
2019-06-20T04:40:18.937Z,18.63
2019-06-20T04:42:51.682Z,23.13
2019-06-20T04:45:37.868Z,18.67
2019-06-20T04:48:10.505Z,18.17
2019-06-20T04:50:43.371Z,26.57
2019-06-20T04:53:15.978Z,20.27
2019-06-20T04:55:48.536Z,20.13
2019-06-20T04:58:22.004Z,19.83
2019-06-20T05:00:54.510Z,25.33
2019-06-20T05:03:27.104Z,23.37
2019-06-20T05:05:59.890Z,25.40
2019-06-20T05:08:32.447Z,23.67
2019-06-20T05:11:05.005Z,23.47
2019-06-20T05:13:38.023Z,22.90
2019-06-20T05:16:10.702Z,23.70
2019-06-20T05:18:43.415Z,19.40
2019-06-20T05:21:22.303Z,24.67
2019-06-20T05:23:55.364Z,23.23
2019-06-20T05:26:27.837Z,24.20
2019-06-20T05:29:00.875Z,21.87
2019-06-20T05:31:34.131Z,20.60
2019-06-20T05:34:06.820Z,21.13
2019-06-20T05:36:39.838Z,27.67
2019-06-20T05:39:12.385Z,23.10
2019-06-20T05:41:47.294Z,20.63
2019-06-20T05:44:21.185Z,24.53
2019-06-20T05:47:11.198Z,26.83
2019-06-20T05:49:45.023Z,24.47
2019-06-20T05:52:17.642Z,27.77
2019-06-20T05:54:50.748Z,29.50
2019-06-20T05:57:23.551Z,28.70
2019-06-20T05:59:56.173Z,25.83
2019-06-20T06:02:28.891Z,26.30
2019-06-20T06:05:01.720Z,25.57
2019-06-20T06:07:34.865Z,23.77
2019-06-20T06:10:09.048Z,27.70
2019-06-20T06:12:45.240Z,27.65
2019-06-20T06:15:17.777Z,25.67
2019-06-20T06:17:50.663Z,25.23
2019-06-20T06:20:23.232Z,21.90
2019-06-20T06:22:55.801Z,29.40
2019-06-20T06:25:28.794Z,26.07
2019-06-20T06:28:01.542Z,28.93
2019-06-20T06:30:34.502Z,27.77
2019-06-20T06:33:07.471Z,27.63
2019-06-20T06:35:40.356Z,28.30
2019-06-20T06:38:13.423Z,32.53
2019-06-20T06:40:47.158Z,28.03
2019-06-20T06:43:20.379Z,28.23
2019-06-20T06:45:53.713Z,26.67
2019-06-20T06:48:28.142Z,25.90
2019-06-20T06:51:01.389Z,26.00
2019-06-20T06:53:34.473Z,24.40
2019-06-20T06:56:07.971Z,21.07
2019-06-20T06:58:40.757Z,25.97
2019-06-20T07:01:13.665Z,24.10
2019-06-20T07:03:47.486Z,23.73
2019-06-20T07:06:20.657Z,26.03
2019-06-20T07:08:53.507Z,25.63
2019-06-20T07:11:26.839Z,23.67
2019-06-20T07:14:00.051Z,23.20
2019-06-20T07:16:33.210Z,21.40
2019-06-20T07:19:07.772Z,22.77
2019-06-20T07:21:40.780Z,20.20
2019-06-20T07:24:13.867Z,21.80
2019-06-20T07:26:47.199Z,20.23
2019-06-20T07:29:19.957Z,19.65
2019-06-20T07:31:52.985Z,19.27
2019-06-20T07:34:26.376Z,17.33
2019-06-20T07:36:59.237Z,19.00
2019-06-20T07:39:32.785Z,15.60
2019-06-20T07:42:06.367Z,13.60
2019-06-20T07:44:39.237Z,16.47
2019-06-20T07:47:17.549Z,16.03
2019-06-20T07:49:51.739Z,15.17
2019-06-20T07:52:24.039Z,16.17
2019-06-20T07:54:56.297Z,14.77
2019-06-20T07:57:28.634Z,14.50
2019-06-20T08:00:00.911Z,12.07
2019-06-20T08:02:34.778Z,14.67
2019-06-20T08:05:08.792Z,16.33
2019-06-20T08:07:43.743Z,14.87
2019-06-20T08:10:16.941Z,16.73
2019-06-20T08:12:49.332Z,15.00
2019-06-20T08:15:22.585Z,14.17
2019-06-20T08:17:56.089Z,11.73
2019-06-20T08:20:28.490Z,12.77
2019-06-20T08:23:01.790Z,12.47
2019-06-20T08:25:34.137Z,10.35
2019-06-20T08:28:07.193Z,11.90
2019-06-20T08:30:39.432Z,10.40
2019-06-20T08:33:12.371Z,9.63
2019-06-20T08:35:44.875Z,9.97
2019-06-20T08:38:17.651Z,10.63
2019-06-20T08:40:51.820Z,9.53
2019-06-20T08:43:24.107Z,10.30
2019-06-20T08:45:57.770Z,11.77
2019-06-20T08:48:30.204Z,11.00
2019-06-20T08:51:04.537Z,8.70
2019-06-20T08:53:37.013Z,8.50
2019-06-20T08:56:09.327Z,10.83
2019-06-20T08:58:41.691Z,10.23
2019-06-20T09:01:14.285Z,9.20
2019-06-20T09:03:46.647Z,11.37
2019-06-20T09:06:19.031Z,10.02
2019-06-20T09:08:51.414Z,8.10
2019-06-20T09:11:23.735Z,10.80
2019-06-20T09:13:57.226Z,9.80
2019-06-20T09:16:29.665Z,7.03
2019-06-20T09:19:02.616Z,7.03
2019-06-20T09:21:35.239Z,7.97
2019-06-20T09:24:08.485Z,7.83
2019-06-20T09:26:40.850Z,7.30
2019-06-20T09:29:13.125Z,8.57
2019-06-20T09:31:45.383Z,9.60
2019-06-20T09:34:18.330Z,6.77
2019-06-20T09:36:52.170Z,9.63
2019-06-20T09:39:26.723Z,9.27
2019-06-20T09:42:00.042Z,7.43
2019-06-20T09:44:32.322Z,5.73
2019-06-20T09:47:06.219Z,6.40
2019-06-20T09:49:39.116Z,7.10
2019-06-20T09:52:12.348Z,6.60
2019-06-20T09:54:48.465Z,6.43
2019-06-20T09:57:53.734Z,6.10
2019-06-20T10:01:04.117Z,8.03
2019-06-20T10:03:58.253Z,6.80
2019-06-20T10:06:30.557Z,6.83
2019-06-20T10:09:03.857Z,6.10
2019-06-20T10:11:36.417Z,6.60
2019-06-20T10:14:11.063Z,6.67
2019-06-20T10:16:47.225Z,6.30
2019-06-20T10:19:22.480Z,5.17
2019-06-20T10:21:55.951Z,5.40
2019-06-20T10:24:28.528Z,5.07
2019-06-20T10:27:01.042Z,6.07
2019-06-20T10:29:33.373Z,6.17
2019-06-20T10:32:05.773Z,5.17
2019-06-20T10:34:38.527Z,7.83
2019-06-20T10:37:10.960Z,6.20
2019-06-20T10:39:44.522Z,5.00
2019-06-20T10:42:18.050Z,5.67
2019-06-20T10:44:52.203Z,8.17
2019-06-20T10:47:33.592Z,5.13
2019-06-20T10:50:08.393Z,5.30
2019-06-20T10:52:42.059Z,5.53
2019-06-20T10:55:16.610Z,6.20
2019-06-20T10:57:49.799Z,6.90
2019-06-20T11:00:31.516Z,5.87
2019-06-20T11:03:04.370Z,5.03
2019-06-20T11:05:37.375Z,5.90
2019-06-20T11:08:09.816Z,7.00
2019-06-20T11:10:43.460Z,5.50
2019-06-20T11:13:18.019Z,4.57
2019-06-20T11:16:11.613Z,4.17
2019-06-20T11:18:44.459Z,5.03
2019-06-20T11:21:18.333Z,4.10
2019-06-20T11:23:51.320Z,4.13
2019-06-20T11:26:24.909Z,5.27
2019-06-20T11:29:46.468Z,3.83
2019-06-20T11:32:20.068Z,6.00
2019-06-20T11:34:52.725Z,5.83
2019-06-20T11:37:25.393Z,4.03
2019-06-20T11:40:02.849Z,4.97
2019-06-20T11:42:40.062Z,6.93
2019-06-20T11:45:25.820Z,4.57
2019-06-20T11:48:00.171Z,4.68
2019-06-20T11:50:40.020Z,4.93
2019-06-20T11:53:25.799Z,6.43
2019-06-20T11:56:25.591Z,4.03
2019-06-20T11:58:58.999Z,5.73
2019-06-20T12:02:57.476Z,4.27
2019-06-20T12:05:32.201Z,4.20
2019-06-20T12:08:12.677Z,5.03
2019-06-20T12:10:53.957Z,4.20
2019-06-20T12:13:29.733Z,5.53
2019-06-20T12:16:10.238Z,5.17
2019-06-20T12:18:49.459Z,5.40
2019-06-20T12:21:25.567Z,5.73
2019-06-20T12:24:04.367Z,5.30
2019-06-20T12:26:44.551Z,5.90
2019-06-20T12:29:18.576Z,4.40
2019-06-20T12:31:53.890Z,6.30
2019-06-20T12:34:27.295Z,5.25
2019-06-20T12:37:06.953Z,4.90
2019-06-20T12:39:46.419Z,4.47
2019-06-20T12:43:01.470Z,4.83
2019-06-20T12:45:42.852Z,3.97
2019-06-20T12:48:22.525Z,4.40
2019-06-20T12:50:59.381Z,6.10
2019-06-20T12:53:38.692Z,5.13
2019-06-20T12:56:15.473Z,5.00
2019-06-20T12:58:49.404Z,5.70
2019-06-20T13:01:36.852Z,6.20
2019-06-20T13:04:26.791Z,5.60
2019-06-20T13:07:05.435Z,4.73
2019-06-20T13:09:40.750Z,4.77
2019-06-20T13:12:14.815Z,4.60
2019-06-20T13:14:49.587Z,6.43
2019-06-20T13:17:32.650Z,6.10
2019-06-20T13:20:07.693Z,5.90
2019-06-20T13:22:46.439Z,6.40
2019-06-20T13:26:14.829Z,5.70
2019-06-20T13:29:04.778Z,7.27
2019-06-20T13:32:04.235Z,7.13
2019-06-20T13:34:53.813Z,8.67
2019-06-20T13:37:33.601Z,9.00
2019-06-20T13:40:09.385Z,8.40
2019-06-20T13:42:44.268Z,6.73
2019-06-20T13:45:37.261Z,8.30
2019-06-20T13:48:09.576Z,6.57
2019-06-20T13:50:42.291Z,6.97
2019-06-20T13:53:15.871Z,7.10
2019-06-20T13:55:50.700Z,5.83
2019-06-20T13:58:23.089Z,6.33
2019-06-20T14:00:55.831Z,6.30
2019-06-20T14:03:51.740Z,8.50
2019-06-20T14:09:39.010Z,6.63
2019-06-20T14:12:16.277Z,6.40
2019-06-20T14:14:55.718Z,6.37
2019-06-20T14:17:32.950Z,4.53
2019-06-20T14:20:08.348Z,7.03
2019-06-20T14:22:45.717Z,5.13
2019-06-20T14:25:20.460Z,5.70
2019-06-20T14:27:54.644Z,6.53
2019-06-20T14:30:27.590Z,5.70
2019-06-20T14:33:02.085Z,8.10
2019-06-20T14:35:35.446Z,5.80
2019-06-20T14:38:11.924Z,6.78
2019-06-20T14:40:54.529Z,6.47
2019-06-20T14:43:30.243Z,5.97
2019-06-20T14:46:11.076Z,6.27
2019-06-20T14:48:45.541Z,6.80
2019-06-20T14:51:20.236Z,6.43
2019-06-20T14:53:54.560Z,6.77
2019-06-20T14:56:28.027Z,5.90
2019-06-20T14:59:00.497Z,7.50
2019-06-20T15:01:53.661Z,6.80
2019-06-20T15:04:26.636Z,6.90
2019-06-20T15:07:03.598Z,5.73
2019-06-20T15:09:36.088Z,5.20
2019-06-20T15:12:08.520Z,5.30
2019-06-20T15:14:40.863Z,4.20
2019-06-20T15:17:13.228Z,4.62
2019-06-20T15:19:46.679Z,4.30
2019-06-20T15:22:27.810Z,3.33
2019-06-20T15:25:00.105Z,2.77
2019-06-20T15:27:34.576Z,3.30
2019-06-20T15:30:08.429Z,3.37
2019-06-20T15:32:53.352Z,3.07
2019-06-20T15:35:29.372Z,3.20
2019-06-20T15:38:01.829Z,3.53
2019-06-20T15:40:34.393Z,3.03
2019-06-20T15:43:07.294Z,4.30
2019-06-20T15:45:40.990Z,3.47
2019-06-20T15:48:14.720Z,3.30
2019-06-20T15:50:50.563Z,3.40
2019-06-20T15:53:23.570Z,4.50
2019-06-20T15:56:00.327Z,3.83
2019-06-20T15:58:56.036Z,3.43
2019-06-20T16:01:53.123Z,2.80
2019-06-20T16:05:10.770Z,3.27
2019-06-20T16:07:43.950Z,3.73
2019-06-20T16:10:17.950Z,2.77
2019-06-20T16:12:53.174Z,2.57
2019-06-20T16:15:27.100Z,2.42
2019-06-20T16:18:03.800Z,3.07
2019-06-20T16:20:38.962Z,3.40
2019-06-20T16:23:11.465Z,2.97
2019-06-20T16:25:54.343Z,3.70
2019-06-20T16:28:27.402Z,3.20
2019-06-20T16:31:08.712Z,4.23
2019-06-20T16:33:50.199Z,3.23
2019-06-20T16:36:22.839Z,3.83
2019-06-20T16:38:55.554Z,2.80
2019-06-20T16:41:28.298Z,3.00
2019-06-20T16:44:00.674Z,3.73
2019-06-20T16:46:34.659Z,3.27
2019-06-20T16:49:07.215Z,3.87
2019-06-20T16:51:39.818Z,3.70
2019-06-20T16:54:15.412Z,3.53
2019-06-20T16:56:51.272Z,3.47
2019-06-20T16:59:24.506Z,4.00
2019-06-20T17:01:57.993Z,3.77
2019-06-20T17:04:32.311Z,3.33
2019-06-20T17:07:06.633Z,3.90
2019-06-20T17:09:39.792Z,6.30
2019-06-20T17:12:12.517Z,3.87
2019-06-20T17:14:44.914Z,2.45
2019-06-20T17:17:17.429Z,3.80
2019-06-20T17:19:51.836Z,2.83
2019-06-20T17:22:39.616Z,3.23
2019-06-20T17:25:13.621Z,3.33
2019-06-20T17:27:47.848Z,3.60
2019-06-20T17:30:20.405Z,4.23
2019-06-20T17:32:57.044Z,3.03
2019-06-20T17:35:30.068Z,4.50
2019-06-20T17:38:18.843Z,3.23
2019-06-20T17:41:26.451Z,3.30
2019-06-20T17:44:07.960Z,3.63
2019-06-20T17:46:43.356Z,2.77
2019-06-20T17:49:18.041Z,3.23
2019-06-20T17:52:00.227Z,2.43
2019-06-20T17:54:49.512Z,2.73
2019-06-20T17:57:26.095Z,2.90
2019-06-20T18:00:02.113Z,2.30
2019-06-20T18:02:42.224Z,2.20
2019-06-20T18:05:19.405Z,2.37
2019-06-20T18:07:53.044Z,3.13
2019-06-20T18:10:27.460Z,2.93
2019-06-20T18:13:01.508Z,2.83
2019-06-20T18:15:41.179Z,4.30
2019-06-20T18:18:17.125Z,2.50
2019-06-20T18:20:53.552Z,3.10
2019-06-20T18:23:30.835Z,2.57
2019-06-20T18:26:08.329Z,3.90
2019-06-20T18:28:42.703Z,3.63
2019-06-20T18:31:18.726Z,3.47
2019-06-20T18:33:52.790Z,3.27
2019-06-20T18:36:25.264Z,3.20
2019-06-20T18:38:57.706Z,3.57
2019-06-20T18:41:30.103Z,3.83
2019-06-20T18:44:02.396Z,3.10
2019-06-20T18:46:35.617Z,3.40
2019-06-20T18:49:08.187Z,3.57
2019-06-20T18:51:40.569Z,3.03
2019-06-20T18:54:12.921Z,3.37
2019-06-20T18:56:45.279Z,5.40
2019-06-20T18:59:18.380Z,4.97
2019-06-20T19:01:51.037Z,3.70
2019-06-20T19:04:24.193Z,2.78
2019-06-20T19:06:57.547Z,3.40
2019-06-20T19:09:29.928Z,3.80
2019-06-20T19:12:02.427Z,4.00
2019-06-20T19:14:35.713Z,2.95
2019-06-20T19:17:09.588Z,4.40
2019-06-20T19:19:41.935Z,3.97
2019-06-20T19:22:14.852Z,4.10
2019-06-20T19:24:48.069Z,4.33
2019-06-20T19:27:20.618Z,3.70
2019-06-20T19:29:53.036Z,22.30
2019-06-20T19:32:25.400Z,14.97
2019-06-20T19:35:02.236Z,8.87
2019-06-20T19:37:35.166Z,5.87
2019-06-20T19:40:07.695Z,4.17
2019-06-20T19:42:40.169Z,4.57
2019-06-20T19:45:15.373Z,4.40
2019-06-20T19:47:48.476Z,6.07
2019-06-20T19:50:22.089Z,8.60
2019-06-20T19:52:54.493Z,9.02
2019-06-20T19:55:27.528Z,27.27
2019-06-20T19:58:00.764Z,63.00
2019-06-20T20:00:33.202Z,26.25
2019-06-20T20:03:05.840Z,22.77
2019-06-20T20:05:38.148Z,18.53
2019-06-20T20:08:10.512Z,17.33
2019-06-20T20:10:47.190Z,15.18
2019-06-20T20:13:19.571Z,13.43
2019-06-20T20:15:51.931Z,13.80
2019-06-20T20:18:24.259Z,10.33
2019-06-20T20:20:57.379Z,8.27
2019-06-20T20:23:29.722Z,17.83
2019-06-20T20:26:02.014Z,11.07
2019-06-20T20:28:34.288Z,7.60
2019-06-20T20:31:06.698Z,7.33
2019-06-20T20:33:39.908Z,6.10
2019-06-20T20:36:24.489Z,5.33
2019-06-20T20:38:57.780Z,4.33
2019-06-20T20:41:30.195Z,5.23
2019-06-20T20:44:02.543Z,7.17
2019-06-20T20:46:34.989Z,7.53
2019-06-20T20:49:08.910Z,6.07
2019-06-20T20:51:41.224Z,6.27
2019-06-20T20:54:15.495Z,5.50
2019-06-20T20:56:49.062Z,6.67
2019-06-20T20:59:21.388Z,6.50
2019-06-20T21:01:54.717Z,5.07
2019-06-20T21:04:27.110Z,4.65
2019-06-20T21:07:03.890Z,5.60
2019-06-20T21:09:37.479Z,5.10
2019-06-20T21:12:10.714Z,6.03
2019-06-20T21:14:43.091Z,5.87
2019-06-20T21:17:16.095Z,3.60
2019-06-20T21:19:48.479Z,4.60
2019-06-20T21:22:24.583Z,5.73
2019-06-20T21:24:57.454Z,5.57
2019-06-20T21:27:29.785Z,5.37
2019-06-20T21:30:05.529Z,4.57
2019-06-20T21:32:37.777Z,5.83
2019-06-20T21:35:10.207Z,6.83
2019-06-20T21:37:44.533Z,4.73
2019-06-20T21:40:17.026Z,5.67
2019-06-20T21:42:49.440Z,5.97
2019-06-20T21:45:21.979Z,5.67
2019-06-20T21:47:54.865Z,5.73
2019-06-20T21:50:27.912Z,6.53
2019-06-20T21:53:00.189Z,6.27
2019-06-20T21:55:32.496Z,6.17
2019-06-20T21:58:04.776Z,5.90
2019-06-20T22:00:43.157Z,6.00
2019-06-20T22:03:15.480Z,7.07
2019-06-20T22:05:48.955Z,8.50
2019-06-20T22:08:21.221Z,8.17
2019-06-20T22:10:53.537Z,6.10
2019-06-20T22:13:29.788Z,6.43
2019-06-20T22:16:04.822Z,5.97
2019-06-20T22:18:37.114Z,7.43
2019-06-20T22:21:09.343Z,8.37
2019-06-20T22:23:42.148Z,7.17
2019-06-20T22:26:14.429Z,6.93
2019-06-20T22:28:46.738Z,7.47
2019-06-20T22:31:19.093Z,6.20
2019-06-20T22:33:51.360Z,6.57
2019-06-20T22:36:38.746Z,10.90
2019-06-20T22:39:12.349Z,8.63
2019-06-20T22:41:45.530Z,7.10
2019-06-20T22:44:18.032Z,7.80
2019-06-20T22:46:50.423Z,8.97
2019-06-20T22:49:23.294Z,7.73
2019-06-20T22:51:55.545Z,10.23
2019-06-20T22:54:27.796Z,9.40
2019-06-20T22:57:00.068Z,7.60
2019-06-20T22:59:32.329Z,10.07
2019-06-20T23:02:04.584Z,8.57
2019-06-20T23:04:37.368Z,7.77
2019-06-20T23:07:09.671Z,6.82
2019-06-20T23:09:41.905Z,7.10
2019-06-20T23:12:14.112Z,9.10
2019-06-20T23:14:46.337Z,9.00
2019-06-20T23:17:18.550Z,8.43
2019-06-20T23:19:50.784Z,8.00
2019-06-20T23:22:22.999Z,11.63
2019-06-20T23:24:57.116Z,8.93
2019-06-20T23:27:29.452Z,9.30
2019-06-20T23:30:04.692Z,7.28
2019-06-20T23:32:37.299Z,5.85
2019-06-20T23:35:09.642Z,8.10
2019-06-20T23:37:41.921Z,8.57
2019-06-20T23:40:14.132Z,7.80
2019-06-20T23:42:47.195Z,11.10
2019-06-20T23:45:19.488Z,7.63
2019-06-20T23:47:52.468Z,6.57
2019-06-20T23:50:23.916Z,6.30
2019-06-20T23:53:05.161Z,8.00
2019-06-20T23:55:37.379Z,7.70
2019-06-20T23:58:09.607Z,7.10
